Annandale, MN (55302)

1:45 PM CST on March 03, 2015 (GMT -0600)
Lake John | Change Station
CLOSE
Current Station
Personal Weather Station
Location: Annandale, MN
Elevation: 1066 ft
Nearby Weather Stations
Active Advisory: Winter Weather Advisory Active Notice: Local Storm Report

Elev 1066 ft 45.26 °N, 94.16 °W | Updated 6 minutes ago

Snow
Snow
23.0 °F
Feels Like 9 °F
N
18.6
Wind Variable Wind from WNW

Today
High -- | Low -- °F
--% Chance of Precip.
Yesterday
High -- | Low -- °F
Precip. -- in
6:51 AM 6:06 PM
Waxing Gibbous, 97% visible
Pressure 29.73 in
Visibility 7.0 miles
Clouds Clear
Windchill 9 °F
Dew Point 15 °F
Humidity 72%
Rainfall 0.00 in
Snow Depth Not available.
UV 4 out of 12
Pollen .40 out of 12
Air Quality Not available.
Flu Activity Not available.
METAR KMGG 031936Z AUTO 31017G23KT 7SM CLR M03/M09 A2973 RMK AO2 T10331095

More Conditions Fewer Conditions

Pressure 29.73 in
Visibility 7.0 miles
Clouds Clear
Windchill 9 °F
Dew Point 15 °F
Humidity 72%
Rainfall 0.00 in
Snow Depth Not available.
UV 4 out of 12
Pollen .40 out of 12
Air Quality Not available.
Flu Activity Not available.
METAR KMGG 031936Z AUTO 31017G23KT 7SM CLR M03/M09 A2973 RMK AO2 T10331095

More Conditions Fewer Conditions

10-Day Weather Forecast

Almanac

Astronomy

Mar. 03, 2015 Rise Set
Actual Time
Civil Twilight
Nautical Twilight
Astronomical Twilight
Moon
Length of Visible Light
Length of Day
Tomorrow will be .
, % of the Moon is Illuminated

Today's Extremes

State Highs State Lows

Community

WunderPhotos

Upload Photos

1,802,217 photos uploaded!

WunderBlogs® & News

Nearby

Air Quality

  Air Quality AQ Index Pollutant
Not available.

Snow Depth

Station Depth Elevation

Earthquake Activity

City Distance Mag. Time & Date
Minimum magnitude displayed is 2.5.

Coastal Water Temperatures

Place Temperature

Nearby Weather Stations

Winter Weather Advisory
Statement as of 12:52 PM CST on March 03, 2015

... Winter Weather Advisory remains in effect until 9 PM CST this
evening...

* timing... now through 9 PM.

* Impacts... travel may be difficult.

Precautionary/preparedness actions...

A Winter Weather Advisory for blowing snow means that visibilities
will be limited due blowing snow. Use caution when
traveling... especially in open areas.



Jrb